createdAt,value
2019-05-05T00:04:25.783Z,18.4
2019-05-05T00:09:14.659Z,19.3
2019-05-05T00:14:01.642Z,20.5
2019-05-05T00:23:29.405Z,21.1
2019-05-05T00:28:16.515Z,19.9
2019-05-05T00:33:05.517Z,20.2
2019-05-05T00:37:54.417Z,22.7
2019-05-05T00:46:07.674Z,17.9
2019-05-05T00:50:55.624Z,17.1
2019-05-05T00:55:44.288Z,18.5
2019-05-05T01:00:32.157Z,18.1
2019-05-05T01:05:18.914Z,20.5
2019-05-05T01:11:58.314Z,18.6
2019-05-05T01:16:45.690Z,17.3
2019-05-05T01:21:32.424Z,18.4
2019-05-05T01:26:19.496Z,18.4
2019-05-05T01:31:06.232Z,19.9
2019-05-05T01:39:20.636Z,12.4
2019-05-05T01:44:08.257Z,13.2
2019-05-05T01:48:56.358Z,15.2
2019-05-05T01:53:44.605Z,15.8
2019-05-05T02:03:48.993Z,15
2019-05-05T02:08:35.755Z,15.5
2019-05-05T02:13:25.036Z,18.6
2019-05-05T02:18:14.918Z,20.8
2019-05-05T02:28:14.770Z,16.9
2019-05-05T02:33:06.256Z,16.8
2019-05-05T02:37:55.823Z,20.1
2019-05-05T02:42:45.586Z,18.4
2019-05-05T02:51:59.063Z,18
2019-05-05T02:56:46.194Z,18.1
2019-05-05T03:01:34.238Z,17.6
2019-05-05T03:06:21.415Z,20.3
2019-05-05T03:11:09.414Z,19.4
2019-05-05T03:19:07.761Z,17.1
2019-05-05T03:23:54.953Z,19
2019-05-05T03:28:43.725Z,20.4
2019-05-05T03:33:31.153Z,20
2019-05-05T03:38:18.386Z,17.9
2019-05-05T03:44:27.425Z,14.2
2019-05-05T03:49:19.930Z,16
2019-05-05T03:54:08.411Z,13.5
2019-05-05T03:58:58.239Z,15
2019-05-05T04:03:45.356Z,16.4
2019-05-05T04:11:59.613Z,13.5
2019-05-05T04:16:46.828Z,12.3
2019-05-05T04:21:36.640Z,14.6
2019-05-05T04:26:24.505Z,13
2019-05-05T04:31:13.427Z,13.5
2019-05-05T04:37:06.543Z,12.1
2019-05-05T04:41:54.544Z,11.2
2019-05-05T04:46:44.288Z,12
2019-05-05T04:51:46.250Z,13
2019-05-05T05:02:31.435Z,10.3
2019-05-05T05:07:18.603Z,11
2019-05-05T05:12:06.477Z,8.4
2019-05-05T05:16:54.174Z,8.5
2019-05-05T05:26:46.739Z,9.1
2019-05-05T05:31:33.766Z,8.3
2019-05-05T05:36:21.544Z,8.9
2019-05-05T05:41:08.822Z,8.6
2019-05-05T05:49:07.541Z,8
2019-05-05T05:53:54.804Z,6.9
2019-05-05T05:58:44.085Z,8.6
2019-05-05T06:03:33.930Z,7.4
2019-05-05T06:13:04.127Z,8.8
2019-05-05T06:17:51.123Z,7.4
2019-05-05T06:22:38.627Z,8.3
2019-05-05T06:27:26.117Z,6.9
2019-05-05T06:37:19.144Z,7.3
2019-05-05T06:42:06.488Z,6
2019-05-05T06:46:54.268Z,5.8
2019-05-05T06:51:43.930Z,5.7
2019-05-05T07:00:20.647Z,5.3
2019-05-05T07:05:08.550Z,5.6
2019-05-05T07:09:55.977Z,6.9
2019-05-05T07:14:44.588Z,5.5
2019-05-05T07:19:34.613Z,5.9
2019-05-05T07:28:51.279Z,6
2019-05-05T07:33:40.030Z,6.2
2019-05-05T07:38:27.240Z,4.9
2019-05-05T07:43:15.478Z,4.2
2019-05-05T07:48:04.857Z,4.8
2019-05-05T07:52:54.411Z,5.1
2019-05-05T07:57:43.536Z,4.3
2019-05-05T08:02:33.871Z,4.4
2019-05-05T08:07:21.350Z,4.5
2019-05-05T08:12:08.702Z,5.3
2019-05-05T08:16:56.020Z,4.1
2019-05-05T08:21:43.787Z,4.3
2019-05-05T08:26:33.555Z,3.3
2019-05-05T08:31:21.265Z,4.3
2019-05-05T08:36:08.684Z,3.9
2019-05-05T08:40:56.360Z,3.7
2019-05-05T08:45:44.404Z,7.3
2019-05-05T08:50:34.613Z,3.4
2019-05-05T08:55:24.435Z,3.3
2019-05-05T09:00:16.174Z,5.2
2019-05-05T09:05:04.235Z,2.8
2019-05-05T09:09:51.298Z,3.6
2019-05-05T09:14:38.617Z,2.9
2019-05-05T09:19:25.368Z,3.6
2019-05-05T09:24:14.382Z,2.7
2019-05-05T09:29:01.888Z,4.8
2019-05-05T09:33:49.161Z,2.9
2019-05-05T09:38:36.084Z,3.8
2019-05-05T09:43:24.115Z,4.5
2019-05-05T09:48:13.915Z,2.3
2019-05-05T09:53:00.875Z,3
2019-05-05T09:57:47.621Z,4.2
2019-05-05T10:02:35.171Z,4
2019-05-05T10:07:24.243Z,3.8
2019-05-05T10:12:12.108Z,3.7
2019-05-05T10:16:59.372Z,3.5
2019-05-05T10:21:46.965Z,2.7
2019-05-05T10:26:34.493Z,2.6
2019-05-05T10:31:21.294Z,3.7
2019-05-05T10:36:08.018Z,3.5
2019-05-05T10:40:55.174Z,3.4
2019-05-05T10:45:44.044Z,2.7
2019-05-05T10:50:34.050Z,3.2
2019-05-05T10:55:23.680Z,2
2019-05-05T11:00:13.208Z,2.6
2019-05-05T11:05:04.074Z,2.6
2019-05-05T11:09:51.186Z,2.3
2019-05-05T11:14:38.286Z,2.8
2019-05-05T11:19:25.159Z,2.3
2019-05-05T11:24:14.562Z,2.1
2019-05-05T11:29:01.627Z,2.3
2019-05-05T11:33:48.665Z,2.3
2019-05-05T11:38:36.535Z,2.6
2019-05-05T11:43:24.615Z,1.8
2019-05-05T11:48:14.616Z,2.1
2019-05-05T11:53:01.564Z,2.2
2019-05-05T11:57:50.071Z,1.1
2019-05-05T12:02:37.621Z,1.3
2019-05-05T12:07:25.494Z,2
2019-05-05T12:12:15.594Z,1.7
2019-05-05T12:17:04.562Z,2.8
2019-05-05T12:21:51.724Z,2.3
2019-05-05T12:26:38.794Z,2.8
2019-05-05T12:31:25.563Z,2.6
2019-05-05T12:36:15.099Z,1.5
2019-05-05T12:41:04.350Z,2.1
2019-05-05T12:45:51.515Z,3.2
2019-05-05T12:50:38.309Z,2.3
2019-05-05T12:55:39.135Z,2
2019-05-05T13:00:29.282Z,2.3
2019-05-05T13:05:16.278Z,2.5
2019-05-05T13:10:04.837Z,3.4
2019-05-05T13:14:54.472Z,2.8
2019-05-05T13:19:43.591Z,2.1
2019-05-05T13:24:30.781Z,3.2
2019-05-05T13:29:17.858Z,3.3
2019-05-05T13:34:04.720Z,3.8
2019-05-05T13:38:52.089Z,2
2019-05-05T13:43:40.843Z,1.8
2019-05-05T13:48:27.735Z,2.5
2019-05-05T13:53:16.488Z,2.7
2019-05-05T13:58:04.011Z,3.1
2019-05-05T14:02:51.522Z,3
2019-05-05T14:07:38.516Z,2.1
2019-05-05T14:12:25.543Z,3.1
2019-05-05T14:17:14.713Z,3.4
2019-05-05T14:22:04.564Z,2.4
2019-05-05T14:26:54.194Z,2.4
2019-05-05T14:31:41.591Z,2.8
2019-05-05T14:36:28.654Z,2.1
2019-05-05T14:41:15.977Z,2.3
2019-05-05T14:46:03.661Z,3.5
2019-05-05T14:50:54.353Z,2.8
2019-05-05T14:55:41.735Z,2.1
2019-05-05T15:00:28.991Z,2.7
2019-05-05T15:05:16.122Z,3
2019-05-05T15:10:05.193Z,2.7
2019-05-05T15:14:54.494Z,4.3
2019-05-05T15:19:43.599Z,3
2019-05-05T15:24:33.500Z,3.2
2019-05-05T15:29:21.001Z,3.1
2019-05-05T15:34:07.875Z,3.3
2019-05-05T15:38:55.280Z,5.2
2019-05-05T15:43:44.102Z,3.7
2019-05-05T15:48:31.250Z,2.8
2019-05-05T15:53:18.522Z,2.6
2019-05-05T15:58:08.296Z,3
2019-05-05T16:02:56.041Z,2.3
2019-05-05T16:07:43.957Z,5.9
2019-05-05T16:12:34.281Z,3.5
2019-05-05T16:17:24.273Z,2.8
2019-05-05T16:22:11.243Z,4.6
2019-05-05T16:26:58.694Z,3.7
2019-05-05T16:31:47.269Z,3.5
2019-05-05T16:36:34.164Z,4.2
2019-05-05T16:41:23.825Z,3.4
2019-05-05T16:46:10.936Z,2.3
2019-05-05T16:50:58.066Z,4.1
2019-05-05T16:55:45.818Z,4.3
2019-05-05T17:00:34.706Z,3.8
2019-05-05T17:05:21.727Z,7.3
2019-05-05T17:10:10.363Z,4.9
2019-05-05T17:14:57.906Z,5.4
2019-05-05T17:19:44.726Z,5.8
2019-05-05T17:24:32.074Z,7
2019-05-05T17:29:19.540Z,6.7
2019-05-05T17:34:06.721Z,7
2019-05-05T17:38:54.374Z,6.6
2019-05-05T17:43:44.823Z,6.7
2019-05-05T17:48:33.542Z,6.9
2019-05-05T17:53:20.743Z,9.7
2019-05-05T17:58:08.203Z,11.9
2019-05-05T18:02:55.277Z,12.3
2019-05-05T18:07:44.103Z,10.5
2019-05-05T18:12:33.736Z,15.2
2019-05-05T18:17:24.417Z,14.2
2019-05-05T18:22:13.893Z,18.3
2019-05-05T18:27:01.402Z,27.4
2019-05-05T18:31:48.692Z,31.9
2019-05-05T18:36:35.885Z,27.3
2019-05-05T18:41:23.694Z,24.8
2019-05-05T18:46:10.697Z,26.2
2019-05-05T18:50:58.128Z,27.6
2019-05-05T18:55:44.947Z,29.7
2019-05-05T19:00:32.034Z,25.6
2019-05-05T19:05:19.046Z,25.4
2019-05-05T19:10:05.956Z,24.3
2019-05-05T19:14:54.829Z,29.5
2019-05-05T19:19:44.692Z,24.8
2019-05-05T19:24:35.388Z,21.2
2019-05-05T19:29:24.292Z,16.4
2019-05-05T19:34:11.940Z,18.6
2019-05-05T19:38:58.686Z,20
2019-05-05T19:43:46.063Z,17
2019-05-05T19:48:33.963Z,19.6
2019-05-05T19:53:21.691Z,22.2
2019-05-05T19:58:11.243Z,23.2
2019-05-05T20:03:04.313Z,23.1
2019-05-05T20:07:52.712Z,20.4
2019-05-05T20:12:39.817Z,23.2
2019-05-05T20:17:26.761Z,23.5
2019-05-05T20:22:14.925Z,20.9
2019-05-05T20:27:04.314Z,21.2
2019-05-05T20:31:54.965Z,23.1
2019-05-05T20:36:43.619Z,21
2019-05-05T20:41:33.917Z,19.8
2019-05-05T20:46:23.747Z,23.1
2019-05-05T20:51:11.268Z,23.5
2019-05-05T20:55:58.715Z,25.3
2019-05-05T21:00:47.525Z,26.1
2019-05-05T21:05:36.491Z,26.2
2019-05-05T21:10:24.315Z,26.7
2019-05-05T21:15:13.148Z,28.4
2019-05-05T21:20:00.529Z,31.3
2019-05-05T21:24:47.438Z,29.9
2019-05-05T21:31:37.515Z,30.5
2019-05-05T21:36:25.231Z,31.6
2019-05-05T21:41:13.847Z,28.5
2019-05-05T21:46:01.144Z,28.1
2019-05-05T21:50:48.949Z,29.5
2019-05-05T21:55:36.493Z,27.2
2019-05-05T22:00:24.111Z,28.9
2019-05-05T22:05:10.984Z,28.5
2019-05-05T22:09:59.833Z,27.2
2019-05-05T22:14:47.277Z,25.6
2019-05-05T22:19:34.572Z,25.3
2019-05-05T22:24:23.011Z,28
2019-05-05T22:30:09.441Z,24.6
2019-05-05T22:34:57.573Z,29.6
2019-05-05T22:39:45.726Z,27.4
2019-05-05T22:44:33.925Z,25.4
2019-05-05T22:49:21.174Z,25.1
2019-05-05T22:54:08.455Z,24.3
2019-05-05T22:58:56.043Z,23.3
2019-05-05T23:03:43.022Z,22.9
2019-05-05T23:08:29.806Z,21.7
2019-05-05T23:13:16.905Z,22
2019-05-05T23:20:28.161Z,21.7
2019-05-05T23:25:15.195Z,20.7
2019-05-05T23:30:03.354Z,19.2
2019-05-05T23:34:50.321Z,20.3
2019-05-05T23:39:37.462Z,21.9
2019-05-05T23:44:25.255Z,21.9
2019-05-05T23:49:13.802Z,22.1
2019-05-05T23:54:01.161Z,22.7
2019-05-05T23:58:48.747Z,21.8
